Аэропорт
Шоуду (ZBAA)

 ZBAA / PEK

China
CN-11
Пекин
 40.08010, 116.58500  / 116 ft

 ZBAA 201830Z 00000MPS 3200 BR NSC M01/M02 Q1029 NOSIG
 TAF ZBAA 200906Z 2012/2112 17004MPS 3500 BR NSC TX07/2107Z TNM03/2021Z TEMPO 2014/2018 2000 -SNRA BR BECMG 2101/2102 33009G16MPS

2020 © VATRUS division (Privacy Policy)